Oasis of the Seas — C6XS7 — position and weather

sailwx.info

Track history (hours):
 
Tides and Currents Weather Stations Pressure Air Temp Water Temp Dewpoint Dewpoint Depression Visibility Wind Speed Wind Dir Waves Ship Positions

Oasis of the Seas

Last reported at 2014-Jul-19 22:27 UTC. Time now 2014-Jul-22 17:25 UTC.
Position N 25°52' W 080°00'.

Length 360 m; draft 9.3 m.

Type: Passenger vessel. MMSI: 311020600.

Date/timePositionNaut miles runAvg speedWind from/ knotsBaromVisibWave heightAir tempDewpointWater temp
2014-Jul-19 22:27N 25°52' W 080°00'1416.1
2014-Jul-19 21:33N 26°05' W 080°05'2 1.8
2014-Jul-19 20:31N 26°05' W 080°07'0 0.0
2014-Jul-19 19:31N 26°05' W 080°07'0 0.0
2014-Jul-19 18:22N 26°05' W 080°07'0 0.0
2014-Jul-19 17:25N 26°05' W 080°07'0 0.0
2014-Jul-19 16:25N 26°05' W 080°07'0 0.0
2014-Jul-19 15:25N 26°05' W 080°07'0 0.0
2014-Jul-19 14:28N 26°05' W 080°07'0 0.0
2014-Jul-19 13:28N 26°05' W 080°07'0 0.0
2014-Jul-19 12:28N 26°05' W 080°07'0 0.0
2014-Jul-19 11:31N 26°05' W 080°07'0 0.0
2014-Jul-19 10:25N 26°05' W 080°07'0 0.1
2014-Jul-19 09:33N 26°05' W 080°07'1110.9
2014-Jul-19 08:33N 26°07' W 079°55'1312.8
2014-Jul-19 07:33N 26°09' W 079°41'1717.0
2014-Jul-19 06:33N 26°10' W 079°22'  
2014-Jul-16 22:10N 18°08' W 063°20'1118.3
2014-Jul-16 21:33N 18°01' W 063°11'2 0.1
2014-Jul-16 10:30N 18°00' W 063°12'10 8.9
2014-Jul-16 09:25N 18°00' W 063°22'9 9.2
2014-Jul-16 08:25N 18°00' W 063°31'8 9.1
2014-Jul-16 07:33N 18°01' W 063°40'  
2014-Jul-12 22:33N 26°07' W 079°54'1212.0
2014-Jul-12 21:33N 26°06' W 080°07'0 0.3
2014-Jul-12 20:32N 26°05' W 080°07'0 0.0
2014-Jul-12 19:32N 26°05' W 080°07'0 0.0
2014-Jul-12 18:28N 26°05' W 080°07'0 0.0
2014-Jul-12 17:33N 26°05' W 080°07'0 0.0
2014-Jul-12 16:33N 26°05' W 080°07'0 0.0
2014-Jul-12 15:33N 26°05' W 080°07'0 0.0
2014-Jul-12 14:33N 26°05' W 080°07'0 0.0
2014-Jul-12 13:33N 26°05' W 080°07'0 0.0
2014-Jul-12 12:24N 26°05' W 080°07'0 0.0
2014-Jul-12 11:25N 26°05' W 080°07'0 0.0
2014-Jul-12 10:28N 26°05' W 080°07'0 0.4
2014-Jul-12 09:33N 26°06' W 080°07'10 9.7
2014-Jul-12 08:33N 25°59' W 079°59'1616.0
2014-Jul-12 07:33N 25°43' W 079°57'  
Track history (hours):
 
Tides and Currents Weather Stations Pressure Air Temp Water Temp Dewpoint Dewpoint Depression Visibility Wind Speed Wind Dir Waves Ship Positions

Oasis of the Seas

Last reported at 2014-Jul-19 22:27 UTC. Time now 2014-Jul-22 17:25 UTC.
Position N 25°52' W 080°00'.

Length 360 m; draft 9.3 m.

Type: Passenger vessel. MMSI: 311020600.

Date/timePositionNaut miles runAvg speedWind from/ knotsBaromVisibWave heightAir tempDewpointWater temp
2014-Jul-19 22:27N 25°52' W 080°00'1416.1
2014-Jul-19 21:33N 26°05' W 080°05'2 1.8
2014-Jul-19 20:31N 26°05' W 080°07'0 0.0
2014-Jul-19 19:31N 26°05' W 080°07'0 0.0
2014-Jul-19 18:22N 26°05' W 080°07'0 0.0
2014-Jul-19 17:25N 26°05' W 080°07'0 0.0
2014-Jul-19 16:25N 26°05' W 080°07'0 0.0
2014-Jul-19 15:25N 26°05' W 080°07'0 0.0
2014-Jul-19 14:28N 26°05' W 080°07'0 0.0
2014-Jul-19 13:28N 26°05' W 080°07'0 0.0
2014-Jul-19 12:28N 26°05' W 080°07'0 0.0
2014-Jul-19 11:31N 26°05' W 080°07'0 0.0
2014-Jul-19 10:25N 26°05' W 080°07'0 0.1
2014-Jul-19 09:33N 26°05' W 080°07'1110.9
2014-Jul-19 08:33N 26°07' W 079°55'1312.8
2014-Jul-19 07:33N 26°09' W 079°41'1717.0
2014-Jul-19 06:33N 26°10' W 079°22'  
2014-Jul-16 22:10N 18°08' W 063°20'1118.3
2014-Jul-16 21:33N 18°01' W 063°11'2 0.1
2014-Jul-16 10:30N 18°00' W 063°12'10 8.9
2014-Jul-16 09:25N 18°00' W 063°22'9 9.2
2014-Jul-16 08:25N 18°00' W 063°31'8 9.1
2014-Jul-16 07:33N 18°01' W 063°40'  
2014-Jul-12 22:33N 26°07' W 079°54'1212.0
2014-Jul-12 21:33N 26°06' W 080°07'0 0.3
2014-Jul-12 20:32N 26°05' W 080°07'0 0.0
2014-Jul-12 19:32N 26°05' W 080°07'0 0.0
2014-Jul-12 18:28N 26°05' W 080°07'0 0.0
2014-Jul-12 17:33N 26°05' W 080°07'0 0.0
2014-Jul-12 16:33N 26°05' W 080°07'0 0.0
2014-Jul-12 15:33N 26°05' W 080°07'0 0.0
2014-Jul-12 14:33N 26°05' W 080°07'0 0.0
2014-Jul-12 13:33N 26°05' W 080°07'0 0.0
2014-Jul-12 12:24N 26°05' W 080°07'0 0.0
2014-Jul-12 11:25N 26°05' W 080°07'0 0.0
2014-Jul-12 10:28N 26°05' W 080°07'0 0.4
2014-Jul-12 09:33N 26°06' W 080°07'10 9.7
2014-Jul-12 08:33N 25°59' W 079°59'1616.0
2014-Jul-12 07:33N 25°43' W 079°57'  

Dump ship's entire track history